Flight Track Log - Related Links

Times and Time Zones

All times are in EDT time to prevent confusion due to time zone crossing. See the OPT452 flight status page for this flight to view local times or setup timezone preferences in your user account.

Time Position Orientation Groundspeed Altitude Reporting Facility
EDT Latitude Longitude Course Direction KTS MPH feet Rate Location/Type
Tue 08:18:24 AM 38.8167 -94.9000 179° South 182 209 1,700  Level Kansas City TRACON
Tue 08:19:35 AM 38.7494 -94.8981 179° South 203 234 5,200 2,682 Climbing Kansas City Center
Tue 08:20:36 AM 38.6897 -94.9244 199° South 235 270 7,600 2,410 Climbing Kansas City Center
Tue 08:21:37 AM 38.6292 -94.9608 205° Southwest 253 291 10,100 2,459 Climbing Kansas City Center
Tue 08:22:38 AM 38.6008 -95.0586 250° West 266 306 12,600 2,323 Climbing Kansas City Center
Tue 08:23:41 AM 38.5764 -95.1511 251° West 282 325 14,900 2,226 Climbing Kansas City Center
Tue 08:24:42 AM 38.5528 -95.2417 252° West 281 323 17,200 2,508 Climbing Kansas City Center
Tue 08:25:43 AM 38.5264 -95.3456 252° West 275 316 20,000 2,361 Climbing Kansas City Center
Tue 08:26:44 AM 38.5019 -95.4308 250° West 270 311 22,000 1,902 Climbing Kansas City Center
Tue 08:27:46 AM 38.4792 -95.5189 252° West 271 312 23,900 1,805 Climbing Kansas City Center
Tue 08:28:47 AM 38.4522 -95.6206 251° West 271 312 25,700 1,388 Climbing Kansas City Center
Tue 08:29:47 AM 38.4272 -95.7164 252° West 291 335 26,700 1,091 Climbing Kansas City Center
Tue 08:30:48 AM 38.3925 -95.8386 250° West 320 368 27,900 1,091 Climbing Kansas City Center
Tue 08:31:48 AM 38.3628 -95.9517 251° West 343 395 28,900 1,033 Climbing Kansas City Center
Tue 08:32:50 AM 38.3311 -96.0681 251° West 354 407 30,000 1,306 Climbing Kansas City Center
Tue 08:33:52 AM 38.2958 -96.1994 251° West 354 407 31,600 1,512 Climbing Kansas City Center
Tue 08:34:53 AM 38.2656 -96.3103 251° West 347 399 33,100 1,355 Climbing Kansas City Center
Tue 08:35:56 AM 38.2350 -96.4175 250° West 339 390 34,400 1,113 Climbing Kansas City Center
Tue 08:36:57 AM 38.2025 -96.5353 251° West 337 388 35,400 744 Climbing Kansas City Center
Tue 08:37:57 AM 38.1708 -96.6494 251° West 342 394 35,900 298 Climbing Kansas City Center
Tue 08:38:58 AM 38.1378 -96.7672 250° West 352 405 36,000 49 Climbing Kansas City Center
Tue 08:39:59 AM 38.1031 -96.8906 250° West 368 423 36,000  Level Kansas City Center
Tue 08:41:00 AM 38.0683 -97.0153 251° West 374 430 36,000  Level Kansas City Center
Tue 08:42:01 AM 38.0258 -97.1644 250° West 373 429 36,000  Level Kansas City Center
Tue 08:43:03 AM 37.9914 -97.2856 250° West 367 422 36,000  Level Kansas City Center
Tue 08:44:04 AM 37.9575 -97.4044 250° West 360 414 36,000  Level Kansas City Center
Tue 08:45:05 AM 37.9197 -97.5308 249° West 360 414 36,000  Level Kansas City Center
Tue 08:46:06 AM 37.8889 -97.6381 250° West 361 415 36,000  Level Kansas City Center
Tue 08:47:10 AM 37.8528 -97.7581 249° West 362 417 36,000  Level Kansas City Center
Tue 08:48:11 AM 37.8181 -97.8817 250° West 369 425 36,000  Level Kansas City Center
Tue 08:49:12 AM 37.7753 -98.0289 250° West 371 427 36,000  Level Kansas City Center
Tue 08:50:16 AM 37.7433 -98.1383 250° West 368 423 36,000  Level Kansas City Center
Tue 08:51:14 AM 37.7072 -98.2606 250° West 369 425 36,000  Level Kansas City Center
Tue 08:52:17 AM 37.6722 -98.3811 250° West 367 422 36,000  Level Kansas City Center
Tue 08:53:18 AM 37.6350 -98.5022 249° West 369 425 36,000  Level Kansas City Center
Tue 08:54:19 AM 37.6003 -98.6194 250° West 362 417 36,000  Level Kansas City Center
Tue 08:55:21 AM 37.5581 -98.7561 249° West 352 405 36,000  Level Kansas City Center
Tue 08:56:21 AM 37.5242 -98.8692 249° West 346 398 36,000  Level Kansas City Center
Tue 08:57:25 AM 37.4908 -98.9817 250° West 345 397 36,000  Level Kansas City Center
Tue 08:58:25 AM 37.4567 -99.0889 248° West 336 387 36,000  Level Kansas City Center
Tue 08:59:29 AM 37.4231 -99.1997 249° West 337 388 36,000  Level Kansas City Center
Tue 09:00:30 AM 37.3881 -99.3094 248° West 339 390 36,000  Level Kansas City Center
Tue 09:01:32 AM 37.3544 -99.4200 249° West 339 390 36,000  Level Kansas City Center
Tue 09:02:32 AM 37.3142 -99.5517 249° West 340 391 36,000  Level Kansas City Center
Tue 09:03:36 AM 37.2797 -99.6614 248° West 347 399 36,000  Level Kansas City Center
Tue 09:04:37 AM 37.2397 -99.7894 249° West 351 404 36,000  Level Kansas City Center
Tue 09:05:37 AM 37.2047 -99.8994 248° West 354 407 36,000  Level Kansas City Center
Tue 09:06:39 AM 37.1547 -99.9986 238° Southwest 349 402 36,000 -720 Level Kansas City Center
Tue 09:07:42 AM 37.0981 -100.1089 237° Southwest 341 392 34,500 -1,935 Descending Kansas City Center
Tue 09:08:43 AM 37.0475 -100.2044 236° Southwest 341 392 32,000 -2,508 Descending Kansas City Center
Tue 09:09:44 AM 36.9892 -100.3175 237° Southwest 344 396 29,400 -2,439 Descending Kansas City Center
Tue 09:10:46 AM 36.9378 -100.4144 236° Southwest 347 399 27,000 -2,304 Descending Kansas City Center
Tue 09:11:49 AM 36.8856 -100.5144 237° Southwest 353 406 24,600 -2,468 Descending Kansas City Center
Tue 09:12:50 AM 36.8247 -100.6269 236° Southwest 352 405 21,900 -2,410 Descending Kansas City Center
Tue 09:13:51 AM 36.7769 -100.7186 237° Southwest 339 390 19,700 -2,256 Descending Kansas City Center
Tue 09:14:55 AM 36.7231 -100.8203 237° Southwest 322 371 17,200 -2,016 Descending Kansas City Center
Tue 09:15:56 AM 36.6803 -100.9022 237° Southwest 305 351 15,500 -1,967 Descending Kansas City Center
Tue 09:16:57 AM 36.6306 -100.9933 236° Southwest 289 333 13,200 -2,098 Descending Kansas City Center
Tue 09:17:59 AM 36.5856 -101.0753 236° Southwest 295 339 11,200 -1,854 Descending Kansas City Center
Tue 09:19:00 AM 36.5458 -101.1525 237° Southwest 286 329 9,400 -1,790 Descending Kansas City Center
Tue 09:20:03 AM 36.5044 -101.2286 236° Southwest 252 290 7,500 -1,597 Descending Kansas City Center
Tue 09:21:04 AM 36.4628 -101.3047 236° Southwest 249 287 6,100 -1,377 Descending Kansas City Center
Tue 09:23:00 AM 36.4551 -101.4986 293° West  Level FlightAware Approximate
Tue 09:30:00 AM 36.6833 -101.5000 North  Level FlightAware Approximate
Tue 09:31:00 AM 36.6851 -101.5078 North  Level Estimated
Tue 09:32:00 AM 36.6833 -101.5000 North  Level FlightAware Approximate
Tue 09:33:00 AM 36.6851 -101.5078 North  Level Estimated
Tue 09:34:00 AM 36.6833 -101.5000 North  Level FlightAware Approximate

Login

Don't have an account? Register now (free) for customized features, flight alerts, and more!